»·PEaware :: UAL1757 KIAH-KLAX

UAL1757 :: KIAH-KLAX

FLIGHT INFORMATION

Flight Status: Arrived
Operator:
United Airlines
More flights by this operator :: More flights under this callsign
Pilot: Rj L. (509)
Aircraft: BOEING 737-900
(B739)
More flights by this aircraft type
Origin: KIAH G Bush Intercontinental/Houst
United States
Destination: KLAX Los Angeles Intl
United States
More flights between these airports :: More routes between these airports
Route: +CRGER JCT ABQ DRK J231 TNP SEAVU2
File this flight plan on PilotEdge
Remarks:
Altitude:
(Current/Filed)
34,000ft
Speed:
(Current/Filed)
428kts
Departed: 23-May-15 11:46 AM
Arrived: 23-May-15 02:51 PM
Distance/Time
Traveled:
1195nm/3:05
Distance/Time
To Go:
Arrived

Flight Plot

Page will automatically refresh every two minutes.


Map Options




Map Legend


Flown Route
Filed Route
Departure Airport
Arrival Airport
Navaid (VOR, NDB)
Fix

Horizontal Profiles

Position Reports

Time Latitude Longitude Heading Altitude Ground
Speed
23-May-15 11:07 29.985225 -95.338860 359 104ft 0kts
23-May-15 11:08 29.985225 -95.338860 359 104ft 0kts
23-May-15 11:09 29.985225 -95.338860 359 104ft 0kts
23-May-15 11:10 29.985225 -95.338860 359 104ft 0kts
23-May-15 11:11 29.985225 -95.338860 359 104ft 0kts
23-May-15 11:12 29.985225 -95.338860 359 104ft 0kts
23-May-15 11:13 29.985225 -95.338860 359 104ft 0kts
23-May-15 11:14 29.985225 -95.338860 359 104ft 0kts
23-May-15 11:15 29.985225 -95.338860 359 104ft 0kts
23-May-15 11:16 29.985225 -95.338860 359 104ft 0kts
23-May-15 11:17 29.985225 -95.338860 359 104ft 0kts
23-May-15 11:18 29.985225 -95.338860 359 104ft 0kts
23-May-15 11:19 29.985225 -95.338860 359 104ft 0kts
23-May-15 11:20 29.985225 -95.338860 359 104ft 0kts
23-May-15 11:21 29.985225 -95.338860 359 104ft 0kts
23-May-15 11:22 29.985225 -95.338860 359 104ft 0kts
23-May-15 11:23 29.985225 -95.338860 359 104ft 0kts
23-May-15 11:24 29.985225 -95.338860 359 104ft 0kts
23-May-15 11:25 29.985225 -95.338860 359 104ft 0kts
23-May-15 11:26 29.985225 -95.338860 359 104ft 0kts
23-May-15 11:27 29.985225 -95.338860 359 104ft 0kts
23-May-15 11:28 29.985225 -95.338860 359 104ft 0kts
23-May-15 11:29 29.985225 -95.338860 359 104ft 0kts
23-May-15 11:30 29.985225 -95.338860 359 104ft 0kts
23-May-15 11:31 29.985225 -95.338860 359 104ft 0kts
23-May-15 11:32 29.985225 -95.338860 359 104ft 0kts
23-May-15 11:33 29.985225 -95.338860 359 104ft 0kts
23-May-15 11:34 29.985225 -95.338860 359 104ft 0kts
23-May-15 11:35 29.985112 -95.338860 359 104ft 2kts
23-May-15 11:36 29.984827 -95.338860 359 104ft 0kts
23-May-15 11:37 29.984827 -95.338860 359 104ft 0kts
23-May-15 11:38 29.984915 -95.339075 234 104ft 6kts
23-May-15 11:39 29.983106 -95.338388 90 104ft 8kts
23-May-15 11:40 29.982999 -95.334019 147 104ft 12kts
23-May-15 11:41 29.978565 -95.333903 180 104ft 18kts
23-May-15 11:42 29.977599 -95.312986 89 119ft 168kts
23-May-15 11:43 29.943715 -95.279954 194 1580ft 262kts
23-May-15 11:44 29.910102 -95.351273 271 5443ft 270kts
23-May-15 11:45 29.928527 -95.439287 281 8228ft 288kts
23-May-15 11:46 29.949743 -95.531174 281 10856ft 306kts
23-May-15 11:47 29.972829 -95.631901 282 12749ft 343kts
23-May-15 11:48 29.998946 -95.746411 277 14406ft 382kts
23-May-15 11:49 29.969540 -95.856566 235 16892ft 377kts
23-May-15 11:50 29.953921 -95.978990 265 19106ft 398kts
23-May-15 11:51 29.951717 -96.108261 265 21080ft 406kts
23-May-15 11:52 29.948707 -96.240013 265 22799ft 414kts
23-May-15 11:53 29.952606 -96.373856 284 24282ft 428kts
23-May-15 11:54 30.015928 -96.494173 300 25542ft 444kts
23-May-15 11:55 30.103673 -96.596499 319 26639ft 461kts
23-May-15 11:56 30.206959 -96.686629 319 27647ft 468kts
23-May-15 11:57 30.280143 -96.776220 288 28372ft 458kts
23-May-15 11:58 30.300620 -96.920124 274 29344ft 452kts
23-May-15 11:59 30.317027 -97.064201 273 30519ft 448kts
23-May-15 12:00 30.332869 -97.206647 273 31657ft 442kts
23-May-15 12:01 30.344550 -97.347770 271 32685ft 436kts
23-May-15 12:02 30.355779 -97.487020 271 33511ft 434kts
23-May-15 12:03 30.369040 -97.625885 272 34089ft 434kts
23-May-15 12:04 30.382473 -97.764562 272 34112ft 431kts
23-May-15 12:05 30.395487 -97.902552 273 34117ft 433kts
23-May-15 12:06 30.407853 -98.041172 273 34114ft 433kts
23-May-15 12:07 30.421354 -98.181296 272 34098ft 437kts
23-May-15 12:08 30.434754 -98.321278 271 34093ft 435kts
23-May-15 12:09 30.446890 -98.460827 272 34090ft 436kts
23-May-15 12:10 30.460091 -98.600580 272 34091ft 435kts
23-May-15 12:11 30.472720 -98.740303 272 34088ft 434kts
23-May-15 12:12 30.485598 -98.879250 272 34085ft 434kts
23-May-15 12:13 30.498738 -99.018519 272 34085ft 433kts
23-May-15 12:14 30.512034 -99.157542 272 34078ft 432kts
23-May-15 12:15 30.525508 -99.296372 272 34071ft 432kts
23-May-15 12:16 30.539247 -99.434502 272 34060ft 431kts
23-May-15 12:17 30.575362 -99.568833 277 34056ft 434kts
23-May-15 12:18 30.588277 -99.706957 271 34051ft 428kts
23-May-15 12:19 30.617626 -99.841046 297 34052ft 446kts
23-May-15 12:20 30.694365 -99.956436 303 34053ft 451kts
23-May-15 12:21 30.772969 -100.070246 302 34053ft 447kts
23-May-15 12:22 30.851040 -100.183254 302 34047ft 448kts
23-May-15 12:23 30.929053 -100.296318 302 34046ft 448kts
23-May-15 12:24 31.007243 -100.410157 301 34041ft 449kts
23-May-15 12:25 31.085366 -100.524303 301 34033ft 449kts
23-May-15 12:26 31.163194 -100.638376 301 34027ft 450kts
23-May-15 12:27 31.241303 -100.753206 301 34029ft 451kts
23-May-15 12:28 31.319396 -100.868357 301 34029ft 451kts
23-May-15 12:29 31.397491 -100.983856 301 34026ft 452kts
23-May-15 12:30 31.475404 -101.099430 301 34024ft 453kts
23-May-15 12:31 31.553636 -101.215827 301 34020ft 454kts
23-May-15 12:32 31.631900 -101.332626 300 33997ft 455kts
23-May-15 12:33 31.710267 -101.449936 300 33994ft 456kts
23-May-15 12:34 31.788400 -101.567253 300 33988ft 457kts
23-May-15 12:35 31.866802 -101.685339 300 33979ft 457kts
23-May-15 12:36 31.945192 -101.803770 300 33973ft 458kts
23-May-15 12:37 32.023483 -101.922458 300 33967ft 457kts
23-May-15 12:38 32.100874 -102.040055 300 33962ft 456kts
23-May-15 12:39 32.179016 -102.159233 300 33964ft 457kts
23-May-15 12:40 32.256893 -102.278374 300 33968ft 457kts
23-May-15 12:41 32.334845 -102.398002 300 33975ft 458kts
23-May-15 12:42 32.412448 -102.517473 299 33988ft 458kts
23-May-15 12:43 32.490290 -102.637691 299 33994ft 459kts
23-May-15 12:44 32.568102 -102.758250 299 33998ft 460kts
23-May-15 12:45 32.645719 -102.878894 299 34000ft 460kts
23-May-15 12:46 32.723505 -103.000191 299 34005ft 461kts
23-May-15 12:47 32.801316 -103.121923 299 34007ft 462kts
23-May-15 12:48 32.879163 -103.244111 299 34006ft 462kts
23-May-15 12:49 32.956714 -103.366231 299 34001ft 464kts
23-May-15 12:50 33.034513 -103.489148 299 33996ft 463kts
23-May-15 12:51 33.112349 -103.612534 299 33990ft 465kts
23-May-15 12:52 33.190084 -103.736170 298 33983ft 465kts
23-May-15 12:53 33.267607 -103.859885 298 33977ft 466kts
23-May-15 12:54 33.345284 -103.984262 298 33984ft 466kts
23-May-15 12:55 33.420629 -104.110218 289 33979ft 456kts
23-May-15 12:56 33.456489 -104.250580 273 33974ft 438kts
23-May-15 12:57 33.482858 -104.393337 273 33963ft 438kts
23-May-15 12:58 33.509001 -104.535994 273 33967ft 437kts
23-May-15 12:59 33.534896 -104.678537 273 33982ft 436kts
23-May-15 13:00 33.560754 -104.820893 273 33999ft 435kts
23-May-15 13:01 33.586389 -104.962493 272 34026ft 434kts
23-May-15 13:02 33.611905 -105.104251 272 34058ft 433kts
23-May-15 13:03 33.633007 -105.222196 271 34091ft 433kts
23-May-15 13:04 33.662499 -105.388116 271 34094ft 439kts
23-May-15 13:05 33.687664 -105.530942 270 34108ft 431kts
23-May-15 13:06 33.708257 -105.648360 270 34111ft 430kts
23-May-15 13:07 33.732933 -105.789923 270 34076ft 432kts
23-May-15 13:08 33.757171 -105.930177 270 34060ft 428kts
23-May-15 13:09 33.781301 -106.070770 270 34049ft 428kts
23-May-15 13:10 33.805285 -106.211514 270 34035ft 429kts
23-May-15 13:11 33.829052 -106.352038 270 34021ft 427kts
23-May-15 13:12 33.852534 -106.491929 270 34008ft 427kts
23-May-15 13:13 33.875913 -106.632236 270 33995ft 426kts
23-May-15 13:14 33.899089 -106.772343 270 33990ft 426kts
23-May-15 13:15 33.921999 -106.911889 270 33990ft 425kts
23-May-15 13:16 33.944772 -107.051636 271 33990ft 424kts
23-May-15 13:17 33.967357 -107.191280 271 33992ft 423kts
23-May-15 13:18 33.989745 -107.330774 271 34000ft 423kts
23-May-15 13:19 34.011989 -107.470102 270 34006ft 427kts
23-May-15 13:20 34.034290 -107.611435 270 34020ft 428kts
23-May-15 13:21 34.056415 -107.752639 270 34028ft 428kts
23-May-15 13:22 34.078415 -107.894110 270 34034ft 428kts
23-May-15 13:23 34.100174 -108.035272 271 34057ft 426kts
23-May-15 13:24 34.121556 -108.174925 272 34063ft 421kts
23-May-15 13:25 34.142742 -108.314509 272 34064ft 422kts
23-May-15 13:26 34.163746 -108.453925 272 34067ft 423kts
23-May-15 13:27 34.184636 -108.593880 272 34075ft 422kts
23-May-15 13:28 34.205280 -108.733669 272 34082ft 422kts
23-May-15 13:29 34.225714 -108.873894 272 34082ft 423kts
23-May-15 13:30 34.246036 -109.013813 272 34082ft 423kts
23-May-15 13:31 34.266319 -109.154393 273 34081ft 424kts
23-May-15 13:32 34.286431 -109.295117 273 34090ft 424kts
23-May-15 13:33 34.306411 -109.436131 273 34092ft 424kts
23-May-15 13:34 34.326161 -109.576779 273 34102ft 425kts
23-May-15 13:35 34.345817 -109.718095 274 34120ft 425kts
23-May-15 13:36 34.365299 -109.859521 274 34138ft 425kts
23-May-15 13:37 34.384568 -110.000747 274 34145ft 426kts
23-May-15 13:38 34.403564 -110.141568 276 34143ft 421kts
23-May-15 13:39 34.422369 -110.282057 276 34137ft 422kts
23-May-15 13:40 34.440228 -110.422714 276 34130ft 422kts
23-May-15 13:41 34.457685 -110.563087 275 34126ft 422kts
23-May-15 13:42 34.474378 -110.704137 275 34124ft 422kts
23-May-15 13:43 34.491617 -110.845316 278 34128ft 423kts
23-May-15 13:44 34.508752 -110.986619 277 34130ft 423kts
23-May-15 13:45 34.525208 -111.127614 278 34135ft 423kts
23-May-15 13:46 34.541429 -111.269285 276 34136ft 423kts
23-May-15 13:47 34.558204 -111.410928 276 34130ft 423kts
23-May-15 13:48 34.574368 -111.552340 277 34126ft 423kts
23-May-15 13:49 34.590966 -111.694347 277 34124ft 424kts
23-May-15 13:50 34.607861 -111.836236 277 34122ft 424kts
23-May-15 13:51 34.625067 -111.978298 278 34119ft 425kts
23-May-15 13:52 34.643968 -112.119196 287 34117ft 422kts
23-May-15 13:53 34.677224 -112.256303 280 34127ft 425kts
23-May-15 13:54 34.693048 -112.398704 279 34129ft 424kts
23-May-15 13:55 34.695457 -112.541756 264 34131ft 428kts
23-May-15 13:56 34.678412 -112.685265 264 34132ft 428kts
23-May-15 13:57 34.661164 -112.828683 264 34129ft 429kts
23-May-15 13:58 34.644139 -112.972315 264 34110ft 428kts
23-May-15 13:59 34.627040 -113.115166 264 34083ft 428kts
23-May-15 14:00 34.609540 -113.259136 264 34066ft 429kts
23-May-15 14:01 34.592126 -113.402078 264 34050ft 429kts
23-May-15 14:02 34.574122 -113.545544 264 34035ft 429kts
23-May-15 14:03 34.553675 -113.688578 259 34021ft 431kts
23-May-15 14:04 34.524163 -113.829490 258 33991ft 431kts
23-May-15 14:05 34.494821 -113.970888 259 33979ft 431kts
23-May-15 14:06 34.465820 -114.112460 260 33968ft 432kts
23-May-15 14:07 34.436839 -114.254019 259 33954ft 432kts
23-May-15 14:08 34.407676 -114.394997 259 33951ft 432kts
23-May-15 14:09 34.377960 -114.536271 259 33949ft 432kts
23-May-15 14:10 34.348041 -114.677355 259 33954ft 432kts
23-May-15 14:11 34.318168 -114.817942 259 33959ft 432kts
23-May-15 14:12 34.288422 -114.958885 259 33965ft 431kts
23-May-15 14:13 34.263726 -115.074477 259 33969ft 422kts
23-May-15 14:14 34.234754 -115.209112 259 32416ft 404kts
23-May-15 14:15 34.202134 -115.359693 260 30172ft 390kts
23-May-15 14:16 34.179535 -115.464483 259 28602ft 381kts
23-May-15 14:17 34.152667 -115.587082 259 26751ft 372kts
23-May-15 14:18 34.126298 -115.706350 258 24950ft 364kts
23-May-15 14:19 34.103371 -115.822751 263 24011ft 342kts
23-May-15 14:20 34.088256 -115.929241 263 23137ft 319kts
23-May-15 14:21 34.071675 -116.041720 263 21891ft 351kts
23-May-15 14:22 34.054891 -116.156492 263 20891ft 345kts
23-May-15 14:23 34.037965 -116.269896 262 19888ft 341kts
23-May-15 14:24 34.020942 -116.381692 262 18882ft 336kts
23-May-15 14:25 34.004301 -116.491984 265 17882ft 330kts
23-May-15 14:26 33.996028 -116.600943 267 17052ft 323kts
23-May-15 14:27 33.987451 -116.709393 267 17063ft 324kts
23-May-15 14:28 33.978832 -116.817859 267 17089ft 324kts
23-May-15 14:29 33.969884 -116.926167 266 17117ft 324kts
23-May-15 14:30 33.960813 -117.034018 266 17132ft 324kts
23-May-15 14:31 33.957442 -117.141680 275 16447ft 317kts
23-May-15 14:32 33.962221 -117.246882 275 14670ft 310kts
23-May-15 14:33 33.966620 -117.349862 274 12992ft 303kts
23-May-15 14:34 33.970843 -117.450680 274 12260ft 302kts
23-May-15 14:35 33.992466 -117.545997 296 11410ft 295kts
23-May-15 14:36 34.013630 -117.640474 260 10486ft 291kts
23-May-15 14:37 34.001560 -117.733609 263 9389ft 274kts
23-May-15 14:38 33.993107 -117.824001 264 8120ft 267kts
23-May-15 14:39 33.984510 -117.912571 264 7021ft 264kts
23-May-15 14:40 33.976187 -117.997013 263 6000ft 242kts
23-May-15 14:41 33.968305 -118.076058 263 5068ft 235kts
23-May-15 14:42 33.960557 -118.153545 262 4200ft 221kts
23-May-15 14:43 33.953861 -118.220230 261 3775ft 177kts
23-May-15 14:44 33.948218 -118.278703 260 2550ft 168kts
23-May-15 14:45 33.942549 -118.330962 262 1288ft 145kts
23-May-15 14:46 33.937612 -118.380779 262 264ft 149kts
23-May-15 14:47 33.935905 -118.407681 267 134ft 30kts
23-May-15 14:48 33.938924 -118.406528 82 134ft 15kts
23-May-15 14:49 33.940832 -118.400846 352 134ft 15kts
23-May-15 14:50 33.941601 -118.400549 83 134ft 0kts

Navigation Log

Ident Type
Flight plan parsing failed, navigation log unavailable